Time;durP1;ratioP1;P1;durP2;ratioP2;P2;SDS_P1;SDS_P2;PMS_P1;PMS_P2;Temp;Humidity;BMP_temperature;BMP_pressure;BME280_temperature;BME280_humidity;BME280_pressure;Samples;Min_cycle;Max_cycle;Signal;HPM_P1;HPM_P2
2022/06/20 04:32:24;;;;;;;5.75;3.45;;;;;;;35.16;29.87;99431.28;5104142;27;20275;-56
2022/06/20 04:35:02;;;;;;;3.63;3.35;;;;;;;35.16;29.60;99432.13;5103478;28;20190;-57
2022/06/20 04:37:34;;;;;;;3.08;2.88;;;;;;;35.48;29.16;99433.22;5103048;28;20742;-57
2022/06/20 04:40:11;;;;;;;7.43;3.72;;;;;;;35.79;28.60;99426.41;5106714;28;20281;-57
2022/06/20 04:42:43;;;;;;;3.83;3.20;;;;;;;36.00;28.38;99431.59;5106651;28;20202;-56
2022/06/20 04:45:18;;;;;;;4.63;3.20;;;;;;;36.70;27.84;99428.09;5106957;28;20198;-57
2022/06/20 04:47:52;;;;;;;3.58;3.28;;;;;;;37.21;27.14;99429.13;5106458;28;20201;-57
2022/06/20 04:50:22;;;;;;;5.82;5.38;;;;;;;38.01;26.55;99424.72;5107234;28;20226;-58
2022/06/20 04:52:53;;;;;;;3.88;3.50;;;;;;;38.12;25.80;99426.72;5107016;28;20742;-57
2022/06/20 04:55:23;;;;;;;3.85;3.60;;;;;;;38.71;25.53;99430.66;5107081;28;20352;-57
2022/06/20 04:57:52;;;;;;;7.82;3.70;;;;;;;38.26;25.77;99414.69;5106978;28;20197;-56
2022/06/20 05:00:22;;;;;;;10.52;9.63;;;;;;;38.76;25.09;99428.09;5107050;28;20202;-57
2022/06/20 05:02:54;;;;;;;5.10;3.65;;;;;;;38.93;24.90;99428.28;5107063;28;20674;-57
2022/06/20 05:05:25;;;;;;;5.68;3.40;;;;;;;39.37;24.50;99419.72;5107044;28;20195;-56
2022/06/20 05:07:53;;;;;;;3.45;3.15;;;;;;;39.60;24.06;99424.41;5106369;28;20194;-56
2022/06/20 05:10:25;;;;;;;4.75;4.35;;;;;;;39.18;24.62;99421.66;5106746;28;20224;-57
2022/06/20 05:12:57;;;;;;;5.25;3.50;;;;;;;38.92;24.44;99416.59;5106701;28;20201;-57
2022/06/20 05:15:32;;;;;;;3.75;3.35;;;;;;;39.92;23.71;99417.59;5106792;28;20198;-57
2022/06/20 05:18:07;;;;;;;3.40;3.20;;;;;;;40.59;22.67;99412.53;5106643;28;20285;-55
2022/06/20 05:20:38;;;;;;;4.93;3.70;;;;;;;39.69;23.62;99422.16;5106632;28;20193;-58
2022/06/20 05:23:13;;;;;;;11.73;10.68;;;;;;;39.65;23.69;99419.06;5106539;28;20255;-58
2022/06/20 05:25:40;;;;;;;4.30;3.72;;;;;;;39.42;23.99;99419.88;5106653;28;20284;-59
2022/06/20 05:28:15;;;;;;;3.70;3.40;;;;;;;39.84;23.21;99425.25;5106245;28;20201;-58
2022/06/20 05:30:43;;;;;;;4.28;4.07;;;;;;;39.18;23.92;99431.69;5106110;28;20273;-59
2022/06/20 05:33:19;;;;;;;9.95;9.02;;;;;;;38.80;24.45;99424.69;5106183;28;20672;-59
2022/06/20 05:35:49;;;;;;;5.88;3.95;;;;;;;38.97;24.53;99432.22;5104338;28;20629;-59
2022/06/20 05:38:21;;;;;;;5.03;4.60;;;;;;;39.05;23.71;99426.47;5105841;28;20281;-58
2022/06/20 05:40:53;;;;;;;4.43;3.25;;;;;;;39.34;24.24;99420.19;5106579;28;20251;-59
2022/06/20 05:43:20;;;;;;;3.92;3.50;;;;;;;39.77;23.62;99425.34;5094157;28;20230;-56
2022/06/20 05:45:50;;;;;;;5.50;4.25;;;;;;;39.78;23.60;99423.44;5092233;28;20566;-57
2022/06/20 05:48:22;;;;;;;7.10;6.68;;;;;;;39.76;23.40;99422.84;5092713;28;20194;-57
2022/06/20 05:50:54;;;;;;;4.82;3.10;;;;;;;39.14;24.24;99412.34;5092080;28;20222;-57
2022/06/20 05:53:25;;;;;;;5.90;3.42;;;;;;;39.07;23.92;99413.47;5092012;28;20682;-57
2022/06/20 05:55:57;;;;;;;6.60;3.20;;;;;;;39.30;23.79;99413.53;5091827;28;20198;-57
2022/06/20 05:58:28;;;;;;;5.82;5.32;;;;;;;38.80;24.04;99413.00;5092061;28;20584;-57
2022/06/20 06:00:58;;;;;;;3.65;3.35;;;;;;;38.94;24.10;99413.66;5089827;28;20588;-57
2022/06/20 06:03:32;;;;;;;3.35;3.15;;;;;;;38.53;24.32;99408.97;5091740;28;20194;-57
2022/06/20 06:06:02;;;;;;;4.25;3.95;;;;;;;38.81;23.75;99409.25;5092316;28;20581;-57
2022/06/20 06:08:34;;;;;;;5.47;2.85;;;;;;;37.92;24.84;99402.53;5092146;28;20199;-58
2022/06/20 06:11:07;;;;;;;3.20;3.00;;;;;;;36.82;26.07;99398.50;5091936;28;20218;-57
2022/06/20 06:13:42;;;;;;;3.30;3.10;;;;;;;36.84;26.29;99401.00;5092166;28;20590;-55
2022/06/20 06:19:08;;;;;;;3.55;3.35;;;;;;;37.69;25.21;99391.50;5091951;28;20201;-56
2022/06/20 06:21:36;;;;;;;5.55;3.50;;;;;;;37.35;25.76;99390.09;5091814;28;20195;-57
2022/06/20 06:24:06;;;;;;;4.50;3.20;;;;;;;37.34;25.92;99391.13;5091615;28;20302;-56
2022/06/20 06:26:36;;;;;;;4.00;3.60;;;;;;;36.90;25.97;99389.31;5091169;28;20206;-57
2022/06/20 06:29:05;;;;;;;4.85;3.38;;;;;;;36.26;27.11;99385.59;5091923;28;20940;-56
2022/06/20 06:31:37;;;;;;;2.95;2.70;;;;;;;35.84;27.35;99381.53;5091581;28;20235;-56
2022/06/20 06:34:15;;;;;;;3.42;3.13;;;;;;;36.17;27.16;99378.75;5091561;28;20195;-57
2022/06/20 06:36:46;;;;;;;3.42;3.10;;;;;;;36.08;27.40;99371.91;5089005;28;20295;-57
2022/06/20 06:39:17;;;;;;;2.90;2.70;;;;;;;35.89;26.94;99381.72;5088688;28;20295;-57
2022/06/20 06:41:47;;;;;;;3.03;2.60;;;;;;;35.71;27.29;99380.69;5091081;28;20191;-57
2022/06/20 06:44:18;;;;;;;3.67;3.30;;;;;;;35.65;27.59;99376.97;5090667;28;20209;-56
2022/06/20 06:46:49;;;;;;;6.47;2.60;;;;;;;35.71;27.37;99369.88;5091108;28;20199;-57
2022/06/20 06:49:28;;;;;;;3.42;3.13;;;;;;;35.54;27.91;99372.19;5088467;28;20343;-56
2022/06/20 06:52:01;;;;;;;6.75;3.33;;;;;;;35.22;27.69;99361.13;5088852;28;20666;-56
2022/06/20 06:54:48;;;;;;;3.65;3.40;;;;;;;35.26;28.32;99365.13;5089309;28;20310;-57
2022/06/20 06:57:22;;;;;;;3.42;3.13;;;;;;;34.78;29.08;99360.84;5091021;28;20259;-55
2022/06/20 06:59:57;;;;;;;4.93;3.33;;;;;;;34.48;30.00;99361.16;5091301;28;20225;-56
2022/06/20 07:02:29;;;;;;;4.95;3.28;;;;;;;34.01;30.95;99342.25;5090768;28;20609;-55
2022/06/20 07:05:01;;;;;;;4.57;3.30;;;;;;;34.29;30.46;99340.38;5091041;28;20216;-56
2022/06/20 07:07:33;;;;;;;3.40;3.10;;;;;;;34.26;30.85;99332.66;5087382;28;20699;-59
2022/06/20 07:10:01;;;;;;;3.75;3.55;;;;;;;33.83;31.51;99332.84;5090089;28;20603;-58
2022/06/20 07:12:35;;;;;;;9.32;4.30;;;;;;;33.50;32.15;99329.91;5089861;28;20223;-58
2022/06/20 07:15:08;;;;;;;5.47;4.97;;;;;;;33.12;32.66;99321.28;5090087;28;20219;-58
2022/06/20 07:17:45;;;;;;;4.20;4.00;;;;;;;33.34;32.27;99324.78;5089791;28;20246;-58
2022/06/20 07:20:14;;;;;;;5.65;3.88;;;;;;;33.87;32.36;99325.19;5087107;28;20219;-58
2022/06/20 07:22:44;;;;;;;4.47;4.05;;;;;;;34.02;31.95;99325.88;5090249;28;20266;-58
2022/06/20 07:25:18;;;;;;;6.00;5.50;;;;;;;34.17;32.01;99315.81;5090639;28;20246;-57
2022/06/20 07:27:52;;;;;;;5.13;4.50;;;;;;;34.28;31.30;99311.75;5090561;28;20282;-58
2022/06/20 07:30:24;;;;;;;4.88;4.57;;;;;;;34.69;31.17;99319.75;5090448;28;20237;-58
2022/06/20 07:32:56;;;;;;;5.22;3.90;;;;;;;34.67;30.68;99310.19;5090587;28;20733;-58
2022/06/20 07:35:29;;;;;;;6.97;6.28;;;;;;;34.71;31.16;99309.59;5090353;28;20692;-58
2022/06/20 07:38:03;;;;;;;4.85;4.18;;;;;;;34.83;30.97;99315.25;5090364;28;20282;-58
2022/06/20 07:40:34;;;;;;;6.60;3.78;;;;;;;34.35;31.23;99296.44;5090540;28;20191;-60
2022/06/20 07:43:07;;;;;;;6.30;4.22;;;;;;;34.60;31.28;99305.63;5090749;28;20213;-58
2022/06/20 07:45:38;;;;;;;5.07;4.30;;;;;;;34.84;31.23;99301.56;5090195;28;20191;-58
2022/06/20 07:48:12;;;;;;;3.80;3.60;;;;;;;35.11;31.00;99299.69;5090201;28;20199;-59
2022/06/20 07:50:46;;;;;;;4.57;3.75;;;;;;;35.12;31.08;99298.66;5090163;28;20206;-57
2022/06/20 07:53:18;;;;;;;4.47;4.00;;;;;;;35.36;30.50;99296.41;5090138;28;20205;-58
2022/06/20 07:55:49;;;;;;;4.35;3.40;;;;;;;34.82;30.62;99278.53;5090271;28;20653;-58
2022/06/20 07:58:21;;;;;;;4.03;3.70;;;;;;;35.28;30.91;99284.78;5090018;28;20564;-57
2022/06/20 08:00:52;;;;;;;10.35;5.68;;;;;;;35.82;30.08;99289.06;5090450;28;20199;-57
2022/06/20 08:03:25;;;;;;;7.93;6.03;;;;;;;35.85;29.84;99288.66;5090221;28;20188;-57
2022/06/20 08:05:59;;;;;;;8.60;6.40;;;;;;;36.62;29.42;99281.44;5089907;28;20298;-57
2022/06/20 08:08:29;;;;;;;5.05;4.75;;;;;;;36.70;28.83;99282.03;5090625;28;20274;-58
2022/06/20 08:11:03;;;;;;;4.85;4.55;;;;;;;36.89;28.43;99274.03;5089697;28;20195;-58
2022/06/20 08:13:34;;;;;;;4.45;3.80;;;;;;;37.17;27.89;99285.25;5089355;28;20275;-58
2022/06/20 08:16:12;;;;;;;3.83;3.20;;;;;;;36.96;27.44;99272.09;5089480;28;20600;-59
2022/06/20 08:18:39;;;;;;;3.63;3.42;;;;;;;37.29;27.78;99278.06;5089415;28;20197;-58
2022/06/20 08:21:14;;;;;;;3.47;3.28;;;;;;;36.79;28.12;99273.69;5089615;28;20281;-57
2022/06/20 08:23:45;;;;;;;4.55;3.35;;;;;;;35.69;29.00;99272.88;5089069;28;20195;-57
2022/06/20 08:26:21;;;;;;;5.25;4.85;;;;;;;36.21;29.08;99273.75;5089537;28;20651;-56
2022/06/20 08:28:54;;;;;;;5.20;3.20;;;;;;;37.12;28.05;99268.84;5086893;28;20195;-57
2022/06/20 08:31:27;;;;;;;4.43;4.13;;;;;;;37.70;26.90;99279.38;5089074;28;20249;-56
2022/06/20 08:34:00;;;;;;;4.38;4.10;;;;;;;37.83;26.89;99276.50;5089101;28;20195;-56
2022/06/20 08:36:35;;;;;;;4.70;4.30;;;;;;;38.20;26.06;99280.03;5089023;28;20290;-56
2022/06/20 08:39:13;;;;;;;3.67;3.47;;;;;;;37.71;26.65;99267.47;5089084;28;20221;-56
2022/06/20 08:42:03;;;;;;;5.05;2.80;;;;;;;37.31;25.85;99269.72;5087695;28;20676;-56
2022/06/20 08:44:53;;;;;;;3.10;2.90;;;;;;;35.79;27.34;99273.28;5089649;28;20268;-57
2022/06/20 08:47:59;;;;;;;3.00;2.83;;;;;;;34.61;29.56;99266.03;5089334;28;20199;-56
2022/06/20 08:51:03;;;;;;;3.45;3.22;;;;;;;34.94;29.53;99268.78;5087021;28;20658;-56
2022/06/20 08:54:02;;;;;;;2.80;2.63;;;;;;;34.94;28.26;99260.69;5069436;28;20616;-56
2022/06/20 08:56:41;;;;;;;4.70;3.28;;;;;;;34.77;28.69;99268.34;5069172;28;20196;-58
2022/06/20 08:59:19;;;;;;;4.95;3.28;;;;;;;34.54;28.07;99268.69;5069114;28;20191;-59
2022/06/20 09:02:01;;;;;;;3.35;3.15;;;;;;;34.24;26.77;99268.16;5069402;28;20641;-59
2022/06/20 09:04:52;;;;;;;2.15;2.05;;;;;;;34.32;26.94;99259.09;5086563;28;20282;-59
2022/06/20 09:07:30;;;;;;;2.80;2.70;;;;;;;34.46;27.76;99268.88;5085634;28;20252;-59
2022/06/20 09:10:29;;;;;;;6.05;2.95;;;;;;;34.54;27.91;99268.69;5086964;28;20191;-58
2022/06/20 09:13:17;;;;;;;2.88;2.60;;;;;;;34.76;27.55;99257.78;5086693;28;20211;-58
2022/06/20 09:15:55;;;;;;;2.58;2.47;;;;;;;34.81;27.28;99253.41;5058278;28;20203;-58
2022/06/20 09:18:39;;;;;;;2.10;2.00;;;;;;;34.84;25.85;99257.56;5080475;28;20294;-58
2022/06/20 09:21:15;;;;;;;2.47;2.38;;;;;;;34.28;25.46;99249.78;5092489;28;20191;-59
2022/06/20 09:23:57;;;;;;;3.03;2.92;;;;;;;34.32;25.80;99248.31;5092536;28;20195;-57
2022/06/20 09:26:32;;;;;;;2.78;2.58;;;;;;;34.38;25.84;99247.53;5093312;28;20645;-60
2022/06/20 09:29:29;;;;;;;2.65;2.17;;;;;;;34.15;26.15;99241.63;5092938;28;20595;-56
2022/06/20 09:32:29;;;;;;;5.72;2.30;;;;;;;34.59;25.93;99250.03;5092475;28;20227;-54
2022/06/20 09:35:23;;;;;;;2.20;2.10;;;;;;;34.79;25.16;99246.56;5092859;28;20191;-55
2022/06/20 09:38:23;;;;;;;4.22;2.78;;;;;;;34.51;24.52;99247.56;5092732;28;20717;-55
2022/06/20 09:40:56;;;;;;;3.47;2.60;;;;;;;34.25;25.53;99225.91;5091431;28;20206;-55
2022/06/20 09:43:38;;;;;;;2.20;1.95;;;;;;;34.23;24.39;99233.34;5089054;28;20200;-56
2022/06/20 09:46:14;;;;;;;1.83;1.73;;;;;;;34.05;23.31;99241.16;5089507;28;20252;-55
2022/06/20 09:48:48;;;;;;;2.45;2.35;;;;;;;33.65;22.94;99230.19;5086046;28;20199;-55
2022/06/20 09:51:22;;;;;;;2.55;1.80;;;;;;;33.61;23.68;99231.63;5092030;28;20634;-56
2022/06/20 09:54:01;;;;;;;3.75;1.92;;;;;;;33.68;23.92;99213.63;5091421;28;20547;-55
2022/06/20 09:56:41;;;;;;;2.47;2.38;;;;;;;33.73;23.27;99239.97;5091092;28;20206;-56
2022/06/20 09:59:18;;;;;;;1.92;1.83;;;;;;;33.72;23.38;99236.44;5090807;28;20205;-56
2022/06/20 10:01:52;;;;;;;2.65;1.70;;;;;;;33.80;23.34;99225.53;5090885;28;20191;-56
2022/06/20 10:04:28;;;;;;;1.80;1.70;;;;;;;33.82;22.96;99222.63;5090859;28;20230;-55
2022/06/20 10:07:01;;;;;;;6.07;4.47;;;;;;;34.00;22.99;99214.00;5088802;28;20286;-59
2022/06/20 10:09:38;;;;;;;7.80;5.53;;;;;;;33.79;23.28;99221.19;5090527;28;20195;-58
2022/06/20 10:12:10;;;;;;;2.00;1.90;;;;;;;33.50;23.51;99205.28;5090490;28;20304;-59
2022/06/20 10:14:49;;;;;;;3.28;3.08;;;;;;;33.57;24.33;99203.44;5090765;28;20187;-59
2022/06/20 10:17:23;;;;;;;3.83;3.63;;;;;;;33.26;23.74;99197.69;5088638;28;20628;-59
2022/06/20 10:19:59;;;;;;;4.70;4.30;;;;;;;32.58;24.89;99191.94;5090880;28;20199;-58
2022/06/20 10:22:37;;;;;;;2.47;2.38;;;;;;;32.18;25.01;99193.38;5091867;28;20193;-58
2022/06/20 10:25:42;;;;;;;2.20;2.10;;;;;;;32.48;24.95;99191.44;5090854;28;20671;-59
2022/06/20 10:28:15;;;;;;;2.25;1.80;;;;;;;32.33;24.67;99167.31;5070997;28;20586;-59
2022/06/20 10:30:50;;;;;;;3.63;2.10;;;;;;;32.34;25.30;99185.09;5071399;28;20750;-56
2022/06/20 10:33:34;;;;;;;2.30;2.15;;;;;;;32.48;25.93;99183.38;5071373;28;20216;-56
2022/06/20 10:36:21;;;;;;;2.45;2.25;;;;;;;32.40;25.00;99187.00;5070906;28;20238;-55
2022/06/20 10:39:04;;;;;;;2.47;2.28;;;;;;;32.33;25.43;99178.03;5071198;28;20216;-56
2022/06/20 10:41:41;;;;;;;2.55;1.85;;;;;;;32.11;25.13;99182.53;5071456;28;20196;-55
2022/06/20 10:44:21;;;;;;;2.17;2.08;;;;;;;31.97;24.91;99169.16;5071201;28;20230;-55
2022/06/20 10:47:01;;;;;;;3.72;1.98;;;;;;;32.08;25.38;99155.22;5077555;28;20227;-56
2022/06/20 10:49:44;;;;;;;3.10;2.30;;;;;;;32.02;26.32;99169.44;5087981;28;20191;-55
2022/06/20 10:52:29;;;;;;;2.00;1.90;;;;;;;31.56;25.93;99158.13;5089760;28;20218;-56
2022/06/20 10:55:07;;;;;;;2.33;2.22;;;;;;;31.67;26.26;99157.66;5090705;28;20288;-55
2022/06/20 10:57:46;;;;;;;3.00;2.22;;;;;;;31.52;26.48;99156.81;5089888;28;20234;-56
2022/06/20 11:00:16;;;;;;;3.45;2.05;;;;;;;31.61;27.17;99153.84;5089796;28;20197;-56
2022/06/20 11:03:13;;;;;;;2.72;2.47;;;;;;;31.73;27.54;99152.38;5089748;28;20195;-56
2022/06/20 11:05:45;;;;;;;3.40;2.15;;;;;;;31.86;27.08;99149.00;5085401;28;20203;-55
2022/06/20 11:08:29;;;;;;;2.50;2.40;;;;;;;31.83;26.88;99146.69;5090854;28;20195;-55
2022/06/20 11:11:11;;;;;;;2.75;2.55;;;;;;;31.63;27.20;99135.72;5090916;28;20689;-55
2022/06/20 11:13:46;;;;;;;3.83;3.63;;;;;;;31.67;27.02;99146.94;5090768;28;20234;-55
2022/06/20 11:16:27;;;;;;;2.40;2.30;;;;;;;31.70;26.74;99139.34;5090522;28;20202;-56
2022/06/20 11:19:06;;;;;;;2.78;2.25;;;;;;;31.47;26.92;99133.25;5090832;28;20730;-55
2022/06/20 11:21:41;;;;;;;3.08;2.83;;;;;;;31.33;27.44;99126.03;5090529;28;20199;-59
2022/06/20 11:24:35;;;;;;;3.53;3.33;;;;;;;31.73;27.64;99138.94;5090728;28;20629;-58
2022/06/20 11:27:17;;;;;;;2.47;2.30;;;;;;;31.82;26.23;99133.50;5090478;28;20257;-58
2022/06/20 11:30:02;;;;;;;4.82;2.28;;;;;;;31.64;26.96;99132.03;5090351;28;20203;-58
2022/06/20 11:32:38;;;;;;;5.03;2.78;;;;;;;31.70;26.68;99136.66;5090460;28;20219;-59
2022/06/20 11:35:30;;;;;;;3.13;2.75;;;;;;;31.47;26.68;99125.19;5090287;28;20199;-59
2022/06/20 11:38:28;;;;;;;3.20;2.88;;;;;;;31.28;27.41;99121.22;5090339;28;20256;-58
2022/06/20 11:41:01;;;;;;;3.33;2.65;;;;;;;31.53;27.13;99124.44;5088041;28;20560;-58
2022/06/20 11:43:54;;;;;;;2.25;2.15;;;;;;;31.58;27.27;99110.47;5090067;28;20297;-59
2022/06/20 11:46:54;;;;;;;3.20;2.70;;;;;;;31.55;27.22;99118.88;5087030;28;20200;-59
2022/06/20 11:49:35;;;;;;;4.47;2.55;;;;;;;31.52;27.51;99105.84;5090290;28;20693;-58
2022/06/20 11:52:11;;;;;;;4.10;3.70;;;;;;;31.55;27.31;99114.34;5090177;28;20195;-58
2022/06/20 11:54:45;;;;;;;5.65;5.25;;;;;;;31.35;26.73;99106.06;5090176;28;20205;-58
2022/06/20 11:57:20;;;;;;;2.42;2.22;;;;;;;30.97;27.31;99108.00;5090320;28;20202;-58
2022/06/20 11:59:52;;;;;;;2.33;2.20;;;;;;;31.03;27.38;99106.44;5089953;28;20619;-58
2022/06/20 12:02:37;;;;;;;2.58;2.38;;;;;;;31.08;27.58;99098.66;5089697;28;20199;-58
2022/06/20 12:05:30;;;;;;;2.63;2.15;;;;;;;31.19;26.86;99089.34;5090026;28;20294;-58
2022/06/20 12:08:08;;;;;;;3.17;2.47;;;;;;;31.34;27.77;99096.34;5089978;28;20584;-56
2022/06/20 12:10:41;;;;;;;2.78;2.08;;;;;;;31.08;26.97;99082.56;5090084;28;20739;-56
2022/06/20 12:13:29;;;;;;;2.55;1.90;;;;;;;31.22;26.86;99083.63;5090064;28;20233;-56
2022/06/20 12:16:03;;;;;;;3.92;2.47;;;;;;;31.11;27.51;99081.41;5086463;28;20595;-56
2022/06/20 12:23:18;;;;;;;3.00;2.75;;;;;;;30.89;27.82;99078.59;5089686;28;20191;-56
2022/06/20 12:24:23;;;;;;;2.70;2.60;;;;;;;30.99;28.33;99073.78;5089724;28;20190;-57
2022/06/20 12:26:52;;;;;;;2.40;2.20;;;;;;;31.03;28.22;99066.22;5089584;28;20206;-56
2022/06/20 12:29:21;;;;;;;8.27;7.68;;;;;;;31.15;29.11;99066.63;5089564;28;20207;-55
2022/06/20 12:31:51;;;;;;;11.63;8.10;;;;;;;31.00;28.31;99064.75;5089355;28;20266;-55
2022/06/20 12:34:37;;;;;;;2.08;1.98;;;;;;;31.07;28.22;99053.25;5089744;28;20617;-55
2022/06/20 12:37:15;;;;;;;2.33;2.10;;;;;;;31.29;28.27;99055.84;5089681;28;20202;-56
2022/06/20 12:39:51;;;;;;;2.65;2.42;;;;;;;31.11;28.45;99057.28;5089481;28;20256;-57
2022/06/20 12:42:30;;;;;;;2.40;2.20;;;;;;;31.18;27.98;99058.19;5089661;28;20321;-56
2022/06/20 12:45:07;;;;;;;2.05;2.00;;;;;;;30.96;28.07;99052.72;5089585;28;20205;-55
2022/06/20 12:47:54;;;;;;;2.10;2.00;;;;;;;30.76;28.08;99046.25;5089647;28;20282;-55
2022/06/20 12:50:24;;;;;;;2.70;2.50;;;;;;;30.73;28.68;99046.63;5089660;28;20617;-56
2022/06/20 12:53:05;;;;;;;3.20;2.83;;;;;;;30.78;29.14;99043.41;5091564;28;20258;-56
2022/06/20 12:55:53;;;;;;;4.50;2.78;;;;;;;30.73;28.64;99041.25;5093748;28;20208;-59
2022/06/20 12:58:55;;;;;;;2.60;2.30;;;;;;;30.58;28.10;99029.72;5093448;28;20195;-56
2022/06/20 13:01:29;;;;;;;4.25;2.80;;;;;;;30.52;28.02;99033.91;5093666;28;20226;-55
2022/06/20 13:04:31;;;;;;;6.32;2.17;;;;;;;30.54;28.26;99025.75;5093446;28;20194;-56
2022/06/20 13:07:15;;;;;;;1.92;1.83;;;;;;;30.63;27.86;99022.78;5059253;28;20285;-56
2022/06/20 13:10:02;;;;;;;1.92;1.90;;;;;;;30.62;27.47;99017.59;5093480;28;20277;-56
2022/06/20 13:12:52;;;;;;;2.70;2.60;;;;;;;30.52;27.98;99022.38;5093303;28;20289;-56
2022/06/20 13:15:42;;;;;;;3.17;2.08;;;;;;;30.25;27.82;99019.28;5093196;28;20195;-55
2022/06/20 13:18:31;;;;;;;2.53;2.40;;;;;;;30.19;28.16;99008.47;5093429;28;20701;-56
2022/06/20 13:21:04;;;;;;;4.22;2.05;;;;;;;30.26;29.03;99007.56;5093107;28;20290;-56
2022/06/20 13:23:48;;;;;;;3.35;2.60;;;;;;;30.29;29.03;99007.19;5093287;28;20203;-56
2022/06/20 13:26:28;;;;;;;3.17;2.97;;;;;;;30.40;28.78;99005.09;5093203;28;20726;-55
2022/06/20 13:29:05;;;;;;;4.35;2.20;;;;;;;30.48;29.33;99000.47;5093370;28;20199;-55
2022/06/20 13:31:38;;;;;;;3.08;2.38;;;;;;;30.46;28.89;98996.34;5092605;28;20726;-55
2022/06/20 13:34:12;;;;;;;2.55;2.10;;;;;;;30.46;28.41;98983.78;5093011;28;20275;-56
2022/06/20 13:36:48;;;;;;;3.80;2.50;;;;;;;30.52;28.71;98988.38;5093179;28;20203;-57
2022/06/20 13:39:25;;;;;;;3.35;3.03;;;;;;;30.49;29.40;98979.88;5092792;28;20230;-56
2022/06/20 13:41:56;;;;;;;3.45;2.80;;;;;;;30.27;29.21;98971.75;5092755;28;20199;-56
2022/06/20 13:44:40;;;;;;;2.35;2.25;;;;;;;30.36;29.39;98969.00;5092660;28;20668;-56
2022/06/20 13:47:18;;;;;;;2.72;2.30;;;;;;;30.27;29.47;98961.03;5092594;28;20302;-56
2022/06/20 13:50:02;;;;;;;2.80;2.40;;;;;;;30.26;30.13;98969.25;5092676;28;20718;-55
2022/06/20 13:52:34;;;;;;;5.22;2.60;;;;;;;30.39;30.06;98963.25;5092359;28;20195;-56
2022/06/20 13:55:09;;;;;;;5.28;2.30;;;;;;;30.38;29.65;98956.22;5092639;28;20209;-56
2022/06/20 13:57:41;;;;;;;4.35;2.97;;;;;;;30.30;29.12;98955.31;5092580;28;20197;-58
2022/06/20 14:00:22;;;;;;;2.40;2.10;;;;;;;30.16;29.55;98952.63;5092672;28;20201;-56
2022/06/20 14:03:06;;;;;;;2.20;2.10;;;;;;;30.09;29.67;98947.19;5091789;28;20710;-59
2022/06/20 14:05:35;;;;;;;3.28;2.90;;;;;;;30.02;29.77;98945.41;5092431;28;20199;-58
2022/06/20 14:08:06;;;;;;;2.90;2.80;;;;;;;29.90;30.27;98943.16;5092326;28;20284;-58
2022/06/20 14:10:37;;;;;;;2.67;2.00;;;;;;;29.88;30.37;98947.00;5092244;28;20192;-58
2022/06/20 14:13:15;;;;;;;5.35;2.28;;;;;;;29.75;29.78;98938.75;5091575;28;20215;-58
2022/06/20 14:15:43;;;;;;;2.42;2.22;;;;;;;29.66;30.14;98939.84;5092164;28;20644;-58
2022/06/20 14:18:18;;;;;;;2.55;2.35;;;;;;;29.55;30.37;98936.59;5092161;28;20209;-58
2022/06/20 14:20:58;;;;;;;3.45;2.50;;;;;;;29.50;30.34;98928.25;5092384;28;20205;-58
2022/06/20 14:23:27;;;;;;;2.58;2.38;;;;;;;29.52;30.34;98930.75;5091924;28;20191;-58
2022/06/20 14:25:56;;;;;;;2.58;2.42;;;;;;;29.61;30.59;98927.84;5091639;28;20248;-59
2022/06/20 14:28:31;;;;;;;7.45;2.80;;;;;;;29.46;30.63;98931.50;5092180;28;20199;-57
2022/06/20 14:31:05;;;;;;;2.67;2.47;;;;;;;29.46;30.13;98924.28;5091798;28;20249;-58
2022/06/20 14:33:43;;;;;;;2.00;1.98;;;;;;;29.55;29.79;98928.56;5091365;28;20314;-56
2022/06/20 14:36:22;;;;;;;2.58;2.47;;;;;;;29.54;29.53;98932.25;5091247;28;20646;-57
2022/06/20 14:38:55;;;;;;;2.22;2.10;;;;;;;29.54;29.49;98920.72;5090835;28;20213;-56
2022/06/20 14:41:41;;;;;;;2.28;2.10;;;;;;;29.50;30.74;98906.88;5090728;28;20719;-57
2022/06/20 14:44:21;;;;;;;4.55;2.72;;;;;;;29.56;31.12;98908.00;5091489;28;20191;-56
2022/06/20 14:46:57;;;;;;;2.67;2.53;;;;;;;29.63;31.17;98908.94;5091378;28;20265;-56
2022/06/20 14:49:29;;;;;;;2.53;2.42;;;;;;;29.63;30.58;98898.25;5091384;28;20206;-57
2022/06/20 14:52:00;;;;;;;3.78;2.20;;;;;;;29.64;30.94;98912.44;5091299;28;20290;-56
2022/06/20 14:54:34;;;;;;;4.43;2.78;;;;;;;29.53;30.83;98911.03;5091216;28;20766;-55
2022/06/20 14:57:09;;;;;;;2.53;2.20;;;;;;;29.44;30.72;98914.78;5091026;28;20203;-57
2022/06/20 14:59:53;;;;;;;2.10;1.98;;;;;;;29.29;30.91;98885.28;5091158;28;20201;-57
2022/06/20 15:02:32;;;;;;;2.30;2.20;;;;;;;29.43;30.77;98902.44;5091238;28;20249;-56
2022/06/20 15:05:06;;;;;;;3.40;2.60;;;;;;;29.43;30.48;98903.25;5091124;28;20282;-56
2022/06/20 15:07:40;;;;;;;3.15;2.35;;;;;;;29.40;30.41;98903.59;5090916;28;20209;-56
2022/06/20 15:10:22;;;;;;;2.78;2.67;;;;;;;29.39;30.75;98899.28;5091165;28;20191;-56
2022/06/20 15:12:52;;;;;;;4.22;2.53;;;;;;;29.42;30.55;98908.78;5091176;28;20741;-56
2022/06/20 15:15:31;;;;;;;4.40;2.60;;;;;;;29.46;30.66;98905.56;5090155;28;20613;-56
2022/06/20 15:18:25;;;;;;;2.30;2.20;;;;;;;29.46;30.99;98902.88;5090742;28;20199;-59
2022/06/20 15:21:00;;;;;;;3.45;2.22;;;;;;;29.43;30.85;98907.78;5090735;28;20206;-59
2022/06/20 15:23:40;;;;;;;2.78;2.58;;;;;;;29.40;31.69;98900.94;5090780;28;20197;-59
2022/06/20 15:26:16;;;;;;;4.32;2.50;;;;;;;29.27;32.14;98893.47;5090600;28;20282;-59
2022/06/20 15:28:45;;;;;;;2.90;2.47;;;;;;;29.24;31.93;98904.53;5090574;28;20209;-59
2022/06/20 15:31:14;;;;;;;2.40;2.08;;;;;;;29.32;31.05;98910.84;5090386;28;20296;-58
2022/06/20 15:33:44;;;;;;;2.33;2.10;;;;;;;29.30;31.51;98902.16;5090446;28;20223;-58
2022/06/20 15:36:22;;;;;;;2.75;2.10;;;;;;;29.29;31.36;98900.50;5090488;28;20203;-57
2022/06/20 15:38:55;;;;;;;2.25;1.98;;;;;;;29.24;31.15;98895.66;5090384;28;20286;-60
2022/06/20 15:41:43;;;;;;;3.38;1.90;;;;;;;29.21;31.48;98901.41;5090339;28;20291;-59
2022/06/20 15:44:25;;;;;;;2.30;2.20;;;;;;;29.21;31.95;98906.75;5090243;28;20191;-57
2022/06/20 15:46:58;;;;;;;3.50;2.20;;;;;;;29.21;31.71;98910.25;5090854;28;20304;-58
2022/06/20 15:49:39;;;;;;;4.18;2.20;;;;;;;29.23;32.16;98910.06;5090114;28;20196;-58
2022/06/20 15:52:27;;;;;;;3.58;2.50;;;;;;;29.24;31.98;98909.88;5090102;28;20199;-58
2022/06/20 15:55:16;;;;;;;2.30;2.20;;;;;;;29.32;31.06;98906.31;5090031;28;20233;-58
2022/06/20 15:58:02;;;;;;;2.78;2.58;;;;;;;29.32;31.38;98910.84;5090293;28;20289;-58
2022/06/20 16:00:43;;;;;;;2.65;2.55;;;;;;;29.11;31.71;98901.63;5090154;28;20659;-58
2022/06/20 16:03:26;;;;;;;2.53;2.40;;;;;;;29.11;31.57;98906.97;5090044;28;20585;-58
2022/06/20 16:05:59;;;;;;;3.35;2.97;;;;;;;29.05;32.80;98902.31;5089880;28;20302;-58
2022/06/20 16:08:38;;;;;;;3.17;2.97;;;;;;;29.09;32.96;98898.28;5089964;28;20198;-58
2022/06/20 16:11:13;;;;;;;3.47;3.17;;;;;;;29.15;32.46;98904.75;5089997;28;20274;-59
2022/06/20 16:13:46;;;;;;;3.92;3.30;;;;;;;29.12;33.02;98910.47;5089777;28;20229;-59
2022/06/20 16:16:16;;;;;;;2.60;2.50;;;;;;;29.15;31.91;98913.59;5089743;28;20705;-56
2022/06/20 16:18:47;;;;;;;3.03;2.47;;;;;;;29.16;31.95;98909.94;5089751;28;20203;-56
2022/06/20 16:21:22;;;;;;;2.08;1.98;;;;;;;29.09;31.78;98911.66;5089858;28;20282;-56
2022/06/20 16:23:54;;;;;;;2.35;2.25;;;;;;;29.02;32.67;98904.50;5089853;28;20580;-58
2022/06/20 16:26:26;;;;;;;2.40;2.30;;;;;;;29.00;32.35;98915.41;5089756;28;20685;-58
2022/06/20 16:29:07;;;;;;;3.30;3.10;;;;;;;28.98;32.50;98908.56;5089711;28;20201;-59
2022/06/20 16:31:48;;;;;;;2.92;2.72;;;;;;;29.13;32.06;98910.28;5078671;28;20602;-56
2022/06/20 16:34:42;;;;;;;2.33;2.22;;;;;;;29.09;32.00;98910.81;5088653;28;20574;-56
2022/06/20 16:37:13;;;;;;;4.60;2.45;;;;;;;29.01;32.10;98917.03;5086996;28;20204;-56
2022/06/20 16:39:42;;;;;;;2.47;2.38;;;;;;;28.97;32.06;98907.72;5085813;28;20191;-55
2022/06/20 16:42:18;;;;;;;2.55;2.35;;;;;;;28.92;31.92;98914.59;5088257;28;20199;-57
2022/06/20 16:44:54;;;;;;;3.80;2.55;;;;;;;28.89;32.25;98899.75;5086406;28;20281;-56
2022/06/20 16:47:33;;;;;;;3.40;2.83;;;;;;;28.93;32.76;98905.56;5085944;28;20191;-58
2022/06/20 16:50:06;;;;;;;5.85;5.35;;;;;;;28.82;34.93;98898.78;5085648;28;20187;-59
2022/06/20 16:52:57;;;;;;;9.25;5.97;;;;;;;28.70;35.33;98895.63;5085700;28;20231;-58
2022/06/20 16:55:36;;;;;;;5.53;5.03;;;;;;;28.65;36.00;98900.69;5088796;28;20709;-58
2022/06/20 16:58:09;;;;;;;10.80;8.10;;;;;;;28.57;36.12;98892.69;5088942;28;20239;-59